Hamilton Plains, Queensland

3:24 AM AEST on May 04, 2015 (GMT +1000)
Proserpine Mill | | Change Station
CLOSE
Current Station
Personal Weather Station
Location: Proserpine, Queensland
Elevation: 43 ft
Nearby Weather Stations

Elev 43 ft 20.40 °S, 148.58 °E | Updated 10 minutes ago

Clear
Clear
62.4 °F
Feels Like 62.4 °F
N
0.0
Wind Variable Wind from SSE
Gusts 0.0 mph

Today
High -- | Low -- °F
--% Chance of Precip.
Yesterday
High -- | Low -- °F
Precip. -- in
6:22 AM 5:41 PM
Full, 100% visible
Pressure 29.92 in
Visibility 6.2 miles
Clouds
Dew Point 60 °F
Humidity 93%
Rainfall 0.00 in
Snow Depth Not available.
UV Not available.
Pollen Not available.
Air Quality Not available.
Flu Activity Not available.
METAR YBPN 031700Z AUTO 00000KT 9999 // NCD 15/14 Q1013

More Conditions Fewer Conditions

Pressure 29.92 in
Visibility 6.2 miles
Clouds
Dew Point 60 °F
Humidity 93%
Rainfall 0.00 in
Snow Depth Not available.
UV Not available.
Pollen Not available.
Air Quality Not available.
Flu Activity Not available.
METAR YBPN 031700Z AUTO 00000KT 9999 // NCD 15/14 Q1013

More Conditions Fewer Conditions

10-Day Weather Forecast

Almanac

Astronomy

May. 04, 2015 Rise Set
Actual Time
Civil Twilight
Nautical Twilight
Astronomical Twilight
Moon
Length of Visible Light
Length of Day
Tomorrow will be .
, % of the Moon is Illuminated

Today's Extremes

Country Highs Country Lows

Community

WunderPhotos

Upload Photos

1,818,294 photos uploaded!

WunderBlogs® & News

Nearby

Air Quality

  Air Quality AQ Index Pollutant
Not available.

Snow Depth

Station Depth Elevation

Earthquake Activity

City Distance Mag. Time & Date
Minimum magnitude displayed is 2.5.

Coastal Water Temperatures

Place Temperature

Stations

Nearby Weather Stations

Station Location Temp. Windchill Dew Point Humidity Wind Precip. Elev Updated Type